createdAt,value
2018-12-01T00:08:27.704Z,16.53
2018-12-01T00:29:05.134Z,12.30
2018-12-01T00:49:46.443Z,13.53
2018-12-01T01:10:24.695Z,12.07
2018-12-01T01:31:03.949Z,14.40
2018-12-01T01:51:45.883Z,11.57
2018-12-01T02:12:22.476Z,16.20
2018-12-01T02:32:56.628Z,9.63
2018-12-01T02:53:34.867Z,16.73
2018-12-01T03:14:09.211Z,9.20
2018-12-01T03:34:46.029Z,15.23
2018-12-01T03:55:36.557Z,13.77
2018-12-01T04:16:11.935Z,15.07
2018-12-01T04:36:50.171Z,18.27
2018-12-01T04:57:26.366Z,14.70
2018-12-01T05:18:09.526Z,18.63
2018-12-01T05:38:51.047Z,10.80
2018-12-01T05:59:26.011Z,27.80
2018-12-01T06:20:04.668Z,17.30
2018-12-01T06:40:41.674Z,31.73
2018-12-01T07:01:19.096Z,29.47
2018-12-01T07:21:57.337Z,28.97
2018-12-01T07:42:34.352Z,23.50
2018-12-01T08:03:16.688Z,24.57
2018-12-01T08:23:52.201Z,20.67
2018-12-01T08:44:27.026Z,17.03
2018-12-01T09:05:06.704Z,20.37
2018-12-01T09:25:41.874Z,10.40
2018-12-01T09:46:18.071Z,14.60
2018-12-01T10:06:55.083Z,15.33
2018-12-01T10:27:30.649Z,13.47
2018-12-01T10:48:06.652Z,9.00
2018-12-01T11:08:46.117Z,9.93
2018-12-01T11:29:22.312Z,10.60
2018-12-01T11:49:58.502Z,6.87
2018-12-01T12:10:34.888Z,9.27
2018-12-01T12:31:12.125Z,4.10
2018-12-01T12:51:50.362Z,7.53
2018-12-01T13:12:26.571Z,4.27
2018-12-01T13:33:05.622Z,5.00
2018-12-01T13:53:45.088Z,13.97
2018-12-01T14:14:21.418Z,11.37
2018-12-01T14:34:55.639Z,3.87
2018-12-01T14:55:34.494Z,3.80
2018-12-01T15:16:13.145Z,8.90
2018-12-01T15:36:51.381Z,9.73
2018-12-01T15:57:34.537Z,8.53
2018-12-01T16:18:11.956Z,9.43
2018-12-01T16:38:50.209Z,9.90
2018-12-01T16:59:25.167Z,8.23
2018-12-01T17:20:02.591Z,5.97
2018-12-01T17:41:29.165Z,4.47
2018-12-01T18:02:08.635Z,6.90
2018-12-01T18:22:46.881Z,7.20
2018-12-01T18:43:27.985Z,7.73
2018-12-01T19:04:07.459Z,14.33
2018-12-01T19:24:43.800Z,5.90
2018-12-01T19:45:23.945Z,9.47
2018-12-01T20:05:59.315Z,7.70
2018-12-01T20:26:39.199Z,5.53
2018-12-01T20:47:17.439Z,6.07
2018-12-01T21:08:02.311Z,7.33
2018-12-01T21:28:37.196Z,5.23
2018-12-01T21:49:15.443Z,4.03
2018-12-01T22:09:54.910Z,3.43
2018-12-01T22:30:29.066Z,1.77
2018-12-01T22:51:07.992Z,7.17
2018-12-01T23:11:43.493Z,2.40
2018-12-01T23:32:18.467Z,2.10
2018-12-01T23:53:06.121Z,1.37
